sensor_id;sensor_type;location;lat;lon;timestamp;P1;durP1;ratioP1;P2;durP2;ratioP2
44862;SDS011;30597;49.628;10.850;2023-04-24T00:00:28;5.10;;;3.17;;
44862;SDS011;30597;49.628;10.850;2023-04-24T00:02:53;4.30;;;3.00;;
44862;SDS011;30597;49.628;10.850;2023-04-24T00:05:21;3.90;;;2.73;;
44862;SDS011;30597;49.628;10.850;2023-04-24T00:07:47;3.30;;;3.00;;
44862;SDS011;30597;49.628;10.850;2023-04-24T00:10:13;3.50;;;2.87;;
44862;SDS011;30597;49.628;10.850;2023-04-24T00:12:39;3.33;;;2.63;;
44862;SDS011;30597;49.628;10.850;2023-04-24T00:15:05;4.07;;;3.03;;
44862;SDS011;30597;49.628;10.850;2023-04-24T00:17:31;2.80;;;2.50;;
44862;SDS011;30597;49.628;10.850;2023-04-24T00:19:56;2.90;;;2.57;;
44862;SDS011;30597;49.628;10.850;2023-04-24T00:22:27;3.03;;;2.73;;
44862;SDS011;30597;49.628;10.850;2023-04-24T00:24:53;3.37;;;2.83;;
44862;SDS011;30597;49.628;10.850;2023-04-24T00:27:19;3.33;;;2.90;;
44862;SDS011;30597;49.628;10.850;2023-04-24T00:29:44;2.50;;;2.30;;
44862;SDS011;30597;49.628;10.850;2023-04-24T00:32:10;3.43;;;2.50;;
44862;SDS011;30597;49.628;10.850;2023-04-24T00:34:36;2.73;;;2.53;;
44862;SDS011;30597;49.628;10.850;2023-04-24T00:37:01;3.30;;;2.70;;
44862;SDS011;30597;49.628;10.850;2023-04-24T00:39:27;2.63;;;2.27;;
44862;SDS011;30597;49.628;10.850;2023-04-24T00:41:52;2.80;;;2.60;;
44862;SDS011;30597;49.628;10.850;2023-04-24T00:44:18;3.13;;;2.83;;
44862;SDS011;30597;49.628;10.850;2023-04-24T00:46:46;3.17;;;2.87;;
44862;SDS011;30597;49.628;10.850;2023-04-24T00:49:17;3.20;;;2.90;;
44862;SDS011;30597;49.628;10.850;2023-04-24T00:51:43;3.50;;;2.40;;
44862;SDS011;30597;49.628;10.850;2023-04-24T00:54:10;2.50;;;2.30;;
44862;SDS011;30597;49.628;10.850;2023-04-24T00:56:36;2.87;;;2.67;;
44862;SDS011;30597;49.628;10.850;2023-04-24T00:59:02;2.40;;;2.20;;
44862;SDS011;30597;49.628;10.850;2023-04-24T01:01:29;3.37;;;2.60;;
44862;SDS011;30597;49.628;10.850;2023-04-24T01:03:55;3.20;;;2.57;;
44862;SDS011;30597;49.628;10.850;2023-04-24T01:06:22;2.57;;;2.37;;
44862;SDS011;30597;49.628;10.850;2023-04-24T01:08:52;3.73;;;2.37;;
44862;SDS011;30597;49.628;10.850;2023-04-24T01:11:17;3.03;;;2.50;;
44862;SDS011;30597;49.628;10.850;2023-04-24T01:13:43;4.13;;;3.73;;
44862;SDS011;30597;49.628;10.850;2023-04-24T01:16:10;2.50;;;2.30;;
44862;SDS011;30597;49.628;10.850;2023-04-24T01:18:36;2.50;;;2.20;;
44862;SDS011;30597;49.628;10.850;2023-04-24T01:21:03;3.07;;;2.20;;
44862;SDS011;30597;49.628;10.850;2023-04-24T01:23:30;3.43;;;2.40;;
44862;SDS011;30597;49.628;10.850;2023-04-24T01:25:55;3.00;;;2.37;;
44862;SDS011;30597;49.628;10.850;2023-04-24T01:28:21;2.93;;;2.17;;
44862;SDS011;30597;49.628;10.850;2023-04-24T01:30:47;3.13;;;2.83;;
44862;SDS011;30597;49.628;10.850;2023-04-24T01:33:13;3.10;;;2.20;;
44862;SDS011;30597;49.628;10.850;2023-04-24T01:35:39;2.77;;;2.50;;
44862;SDS011;30597;49.628;10.850;2023-04-24T01:38:05;3.03;;;2.70;;
44862;SDS011;30597;49.628;10.850;2023-04-24T01:40:31;3.40;;;2.30;;
44862;SDS011;30597;49.628;10.850;2023-04-24T01:42:57;3.07;;;2.77;;
44862;SDS011;30597;49.628;10.850;2023-04-24T01:45:23;3.90;;;2.80;;
44862;SDS011;30597;49.628;10.850;2023-04-24T01:47:49;2.80;;;2.27;;
44862;SDS011;30597;49.628;10.850;2023-04-24T01:50:15;3.07;;;2.33;;
44862;SDS011;30597;49.628;10.850;2023-04-24T01:52:42;3.20;;;2.40;;
44862;SDS011;30597;49.628;10.850;2023-04-24T01:55:07;2.43;;;2.23;;
44862;SDS011;30597;49.628;10.850;2023-04-24T01:57:33;2.60;;;2.40;;
44862;SDS011;30597;49.628;10.850;2023-04-24T02:00:00;2.07;;;1.87;;
44862;SDS011;30597;49.628;10.850;2023-04-24T02:02:26;2.30;;;2.10;;
44862;SDS011;30597;49.628;10.850;2023-04-24T02:04:54;2.33;;;2.10;;
44862;SDS011;30597;49.628;10.850;2023-04-24T02:07:20;2.10;;;1.90;;
44862;SDS011;30597;49.628;10.850;2023-04-24T02:09:46;2.57;;;2.37;;
44862;SDS011;30597;49.628;10.850;2023-04-24T02:12:12;2.67;;;1.80;;
44862;SDS011;30597;49.628;10.850;2023-04-24T02:14:37;3.10;;;2.73;;
44862;SDS011;30597;49.628;10.850;2023-04-24T02:17:03;3.10;;;2.70;;
44862;SDS011;30597;49.628;10.850;2023-04-24T02:19:29;2.33;;;2.13;;
44862;SDS011;30597;49.628;10.850;2023-04-24T02:21:55;4.83;;;2.50;;
44862;SDS011;30597;49.628;10.850;2023-04-24T02:24:21;2.20;;;2.00;;
44862;SDS011;30597;49.628;10.850;2023-04-24T02:26:46;2.27;;;1.90;;
44862;SDS011;30597;49.628;10.850;2023-04-24T02:29:12;2.57;;;2.37;;
44862;SDS011;30597;49.628;10.850;2023-04-24T02:31:37;2.27;;;2.07;;
44862;SDS011;30597;49.628;10.850;2023-04-24T02:34:03;2.07;;;1.97;;
44862;SDS011;30597;49.628;10.850;2023-04-24T02:36:28;3.00;;;2.10;;
44862;SDS011;30597;49.628;10.850;2023-04-24T02:38:55;2.20;;;2.00;;
44862;SDS011;30597;49.628;10.850;2023-04-24T02:41:20;2.37;;;2.17;;
44862;SDS011;30597;49.628;10.850;2023-04-24T02:43:46;2.50;;;2.20;;
44862;SDS011;30597;49.628;10.850;2023-04-24T02:46:11;2.30;;;2.10;;
44862;SDS011;30597;49.628;10.850;2023-04-24T02:48:37;2.27;;;2.07;;
44862;SDS011;30597;49.628;10.850;2023-04-24T02:51:03;2.37;;;2.10;;
44862;SDS011;30597;49.628;10.850;2023-04-24T02:53:28;2.23;;;1.87;;
44862;SDS011;30597;49.628;10.850;2023-04-24T02:55:55;4.47;;;2.20;;
44862;SDS011;30597;49.628;10.850;2023-04-24T02:58:21;2.13;;;1.93;;
44862;SDS011;30597;49.628;10.850;2023-04-24T03:00:46;2.30;;;2.10;;
44862;SDS011;30597;49.628;10.850;2023-04-24T03:03:12;2.10;;;1.90;;
44862;SDS011;30597;49.628;10.850;2023-04-24T03:05:40;2.53;;;2.10;;
44862;SDS011;30597;49.628;10.850;2023-04-24T03:08:06;2.03;;;1.83;;
44862;SDS011;30597;49.628;10.850;2023-04-24T03:10:31;2.53;;;2.33;;
44862;SDS011;30597;49.628;10.850;2023-04-24T03:12:57;2.03;;;1.87;;
44862;SDS011;30597;49.628;10.850;2023-04-24T03:15:23;2.00;;;1.70;;
44862;SDS011;30597;49.628;10.850;2023-04-24T03:17:48;2.20;;;2.00;;
44862;SDS011;30597;49.628;10.850;2023-04-24T03:20:14;2.40;;;2.20;;
44862;SDS011;30597;49.628;10.850;2023-04-24T03:22:39;2.10;;;1.63;;
44862;SDS011;30597;49.628;10.850;2023-04-24T03:25:05;2.47;;;2.17;;
44862;SDS011;30597;49.628;10.850;2023-04-24T03:27:31;2.43;;;2.23;;
44862;SDS011;30597;49.628;10.850;2023-04-24T03:29:57;1.80;;;1.70;;
44862;SDS011;30597;49.628;10.850;2023-04-24T03:32:22;1.93;;;1.83;;
44862;SDS011;30597;49.628;10.850;2023-04-24T03:34:48;2.27;;;2.07;;
44862;SDS011;30597;49.628;10.850;2023-04-24T03:37:15;1.93;;;1.73;;
44862;SDS011;30597;49.628;10.850;2023-04-24T03:39:41;1.60;;;1.50;;
44862;SDS011;30597;49.628;10.850;2023-04-24T03:42:06;3.00;;;2.07;;
44862;SDS011;30597;49.628;10.850;2023-04-24T03:44:33;2.27;;;2.07;;
44862;SDS011;30597;49.628;10.850;2023-04-24T03:46:59;2.33;;;1.70;;
44862;SDS011;30597;49.628;10.850;2023-04-24T03:49:25;2.57;;;1.80;;
44862;SDS011;30597;49.628;10.850;2023-04-24T03:51:50;2.13;;;1.93;;
44862;SDS011;30597;49.628;10.850;2023-04-24T03:54:17;1.97;;;1.63;;
44862;SDS011;30597;49.628;10.850;2023-04-24T03:56:43;1.93;;;1.83;;
44862;SDS011;30597;49.628;10.850;2023-04-24T03:59:09;2.00;;;1.80;;
44862;SDS011;30597;49.628;10.850;2023-04-24T04:01:35;2.37;;;2.17;;
44862;SDS011;30597;49.628;10.850;2023-04-24T04:04:04;1.70;;;1.60;;
44862;SDS011;30597;49.628;10.850;2023-04-24T04:06:33;1.87;;;1.73;;
44862;SDS011;30597;49.628;10.850;2023-04-24T04:08:59;1.80;;;1.70;;
44862;SDS011;30597;49.628;10.850;2023-04-24T04:11:25;1.77;;;1.67;;
44862;SDS011;30597;49.628;10.850;2023-04-24T04:13:50;2.50;;;2.10;;
44862;SDS011;30597;49.628;10.850;2023-04-24T04:16:17;2.23;;;1.90;;
44862;SDS011;30597;49.628;10.850;2023-04-24T04:18:43;2.10;;;1.83;;
44862;SDS011;30597;49.628;10.850;2023-04-24T04:21:09;2.03;;;1.60;;
44862;SDS011;30597;49.628;10.850;2023-04-24T04:23:34;2.10;;;1.90;;
44862;SDS011;30597;49.628;10.850;2023-04-24T04:26:00;1.93;;;1.80;;
44862;SDS011;30597;49.628;10.850;2023-04-24T04:28:26;3.33;;;1.70;;
44862;SDS011;30597;49.628;10.850;2023-04-24T04:30:52;1.63;;;1.53;;
44862;SDS011;30597;49.628;10.850;2023-04-24T04:33:22;1.97;;;1.77;;
44862;SDS011;30597;49.628;10.850;2023-04-24T04:35:48;2.40;;;1.33;;
44862;SDS011;30597;49.628;10.850;2023-04-24T04:38:14;1.83;;;1.73;;
44862;SDS011;30597;49.628;10.850;2023-04-24T04:40:42;1.60;;;1.50;;
44862;SDS011;30597;49.628;10.850;2023-04-24T04:43:07;1.60;;;1.50;;
44862;SDS011;30597;49.628;10.850;2023-04-24T04:45:33;2.17;;;1.77;;
44862;SDS011;30597;49.628;10.850;2023-04-24T04:47:59;1.73;;;1.60;;
44862;SDS011;30597;49.628;10.850;2023-04-24T04:50:26;3.23;;;1.80;;
44862;SDS011;30597;49.628;10.850;2023-04-24T04:52:52;1.73;;;1.50;;
44862;SDS011;30597;49.628;10.850;2023-04-24T04:55:18;2.20;;;1.80;;
44862;SDS011;30597;49.628;10.850;2023-04-24T04:57:45;2.50;;;2.30;;
44862;SDS011;30597;49.628;10.850;2023-04-24T05:00:11;1.60;;;1.50;;
44862;SDS011;30597;49.628;10.850;2023-04-24T05:02:39;1.73;;;1.63;;
44862;SDS011;30597;49.628;10.850;2023-04-24T05:05:05;1.70;;;1.57;;
44862;SDS011;30597;49.628;10.850;2023-04-24T05:07:32;1.53;;;1.43;;
44862;SDS011;30597;49.628;10.850;2023-04-24T05:09:58;1.73;;;1.40;;
44862;SDS011;30597;49.628;10.850;2023-04-24T05:12:23;2.20;;;1.43;;
44862;SDS011;30597;49.628;10.850;2023-04-24T05:14:50;1.83;;;1.73;;
44862;SDS011;30597;49.628;10.850;2023-04-24T05:17:16;3.00;;;2.33;;
44862;SDS011;30597;49.628;10.850;2023-04-24T05:19:41;2.23;;;1.60;;
44862;SDS011;30597;49.628;10.850;2023-04-24T05:22:07;3.17;;;1.37;;
44862;SDS011;30597;49.628;10.850;2023-04-24T05:24:34;1.97;;;1.87;;
44862;SDS011;30597;49.628;10.850;2023-04-24T05:27:01;2.03;;;1.20;;
44862;SDS011;30597;49.628;10.850;2023-04-24T05:29:32;4.53;;;1.77;;
44862;SDS011;30597;49.628;10.850;2023-04-24T05:31:58;2.40;;;1.90;;
44862;SDS011;30597;49.628;10.850;2023-04-24T05:34:24;4.37;;;1.57;;
44862;SDS011;30597;49.628;10.850;2023-04-24T05:36:49;2.00;;;1.80;;
44862;SDS011;30597;49.628;10.850;2023-04-24T05:39:15;1.60;;;1.50;;
44862;SDS011;30597;49.628;10.850;2023-04-24T05:41:41;3.30;;;2.10;;
44862;SDS011;30597;49.628;10.850;2023-04-24T05:44:07;3.13;;;2.00;;
44862;SDS011;30597;49.628;10.850;2023-04-24T05:46:32;2.70;;;2.37;;
44862;SDS011;30597;49.628;10.850;2023-04-24T05:48:58;2.57;;;1.93;;
44862;SDS011;30597;49.628;10.850;2023-04-24T05:51:23;3.40;;;3.10;;
44862;SDS011;30597;49.628;10.850;2023-04-24T05:53:49;4.30;;;3.40;;
44862;SDS011;30597;49.628;10.850;2023-04-24T05:56:14;3.40;;;3.10;;
44862;SDS011;30597;49.628;10.850;2023-04-24T05:58:40;5.17;;;3.90;;
44862;SDS011;30597;49.628;10.850;2023-04-24T06:01:09;3.67;;;3.37;;
44862;SDS011;30597;49.628;10.850;2023-04-24T06:03:35;3.93;;;3.53;;
44862;SDS011;30597;49.628;10.850;2023-04-24T06:06:00;4.00;;;3.60;;
44862;SDS011;30597;49.628;10.850;2023-04-24T06:08:26;3.77;;;3.43;;
44862;SDS011;30597;49.628;10.850;2023-04-24T06:10:51;3.93;;;3.50;;
44862;SDS011;30597;49.628;10.850;2023-04-24T06:13:17;4.17;;;3.77;;
44862;SDS011;30597;49.628;10.850;2023-04-24T06:15:43;4.13;;;3.73;;
44862;SDS011;30597;49.628;10.850;2023-04-24T06:18:09;3.70;;;3.40;;
44862;SDS011;30597;49.628;10.850;2023-04-24T06:20:37;4.53;;;3.27;;
44862;SDS011;30597;49.628;10.850;2023-04-24T06:23:03;4.13;;;3.60;;
44862;SDS011;30597;49.628;10.850;2023-04-24T06:25:28;3.80;;;3.40;;
44862;SDS011;30597;49.628;10.850;2023-04-24T06:27:54;4.40;;;3.60;;
44862;SDS011;30597;49.628;10.850;2023-04-24T06:30:20;3.83;;;3.40;;
44862;SDS011;30597;49.628;10.850;2023-04-24T06:32:46;5.33;;;3.50;;
44862;SDS011;30597;49.628;10.850;2023-04-24T06:35:12;3.50;;;3.20;;
44862;SDS011;30597;49.628;10.850;2023-04-24T06:37:41;4.17;;;3.77;;
44862;SDS011;30597;49.628;10.850;2023-04-24T06:40:07;4.77;;;3.33;;
44862;SDS011;30597;49.628;10.850;2023-04-24T06:42:33;4.00;;;3.67;;
44862;SDS011;30597;49.628;10.850;2023-04-24T06:45:00;4.53;;;3.60;;
44862;SDS011;30597;49.628;10.850;2023-04-24T06:47:25;4.00;;;3.60;;
44862;SDS011;30597;49.628;10.850;2023-04-24T06:49:51;3.97;;;3.67;;
44862;SDS011;30597;49.628;10.850;2023-04-24T06:52:17;3.63;;;3.33;;
44862;SDS011;30597;49.628;10.850;2023-04-24T06:54:43;3.63;;;3.33;;
44862;SDS011;30597;49.628;10.850;2023-04-24T06:57:09;4.30;;;3.90;;
44862;SDS011;30597;49.628;10.850;2023-04-24T06:59:35;4.80;;;3.77;;
44862;SDS011;30597;49.628;10.850;2023-04-24T07:02:01;4.10;;;3.70;;
44862;SDS011;30597;49.628;10.850;2023-04-24T07:04:28;4.00;;;3.60;;
44862;SDS011;30597;49.628;10.850;2023-04-24T07:06:54;4.27;;;3.87;;
44862;SDS011;30597;49.628;10.850;2023-04-24T07:09:21;4.30;;;3.90;;
44862;SDS011;30597;49.628;10.850;2023-04-24T07:11:48;4.80;;;3.73;;
44862;SDS011;30597;49.628;10.850;2023-04-24T07:14:15;4.13;;;3.73;;
44862;SDS011;30597;49.628;10.850;2023-04-24T07:16:41;3.97;;;3.60;;
44862;SDS011;30597;49.628;10.850;2023-04-24T07:19:08;3.90;;;3.60;;
44862;SDS011;30597;49.628;10.850;2023-04-24T07:21:34;3.60;;;3.30;;
44862;SDS011;30597;49.628;10.850;2023-04-24T07:24:00;4.13;;;3.83;;
44862;SDS011;30597;49.628;10.850;2023-04-24T07:26:28;4.60;;;4.20;;
44862;SDS011;30597;49.628;10.850;2023-04-24T07:28:55;3.70;;;3.40;;
44862;SDS011;30597;49.628;10.850;2023-04-24T07:31:21;4.40;;;3.90;;
44862;SDS011;30597;49.628;10.850;2023-04-24T07:33:46;3.87;;;3.27;;
44862;SDS011;30597;49.628;10.850;2023-04-24T07:36:12;3.97;;;3.57;;
44862;SDS011;30597;49.628;10.850;2023-04-24T07:38:44;4.03;;;3.70;;
44862;SDS011;30597;49.628;10.850;2023-04-24T07:41:11;3.70;;;3.40;;
44862;SDS011;30597;49.628;10.850;2023-04-24T07:43:37;4.80;;;4.40;;
44862;SDS011;30597;49.628;10.850;2023-04-24T07:46:03;3.23;;;2.93;;
44862;SDS011;30597;49.628;10.850;2023-04-24T07:48:28;4.57;;;4.17;;
44862;SDS011;30597;49.628;10.850;2023-04-24T07:50:54;4.27;;;3.87;;
44862;SDS011;30597;49.628;10.850;2023-04-24T07:53:20;3.60;;;3.30;;
44862;SDS011;30597;49.628;10.850;2023-04-24T07:55:45;3.53;;;3.23;;
44862;SDS011;30597;49.628;10.850;2023-04-24T07:58:11;4.00;;;3.57;;
44862;SDS011;30597;49.628;10.850;2023-04-24T08:00:37;4.17;;;3.77;;
44862;SDS011;30597;49.628;10.850;2023-04-24T08:03:02;4.30;;;3.70;;
44862;SDS011;30597;49.628;10.850;2023-04-24T08:05:28;4.70;;;3.27;;
44862;SDS011;30597;49.628;10.850;2023-04-24T08:07:54;3.77;;;3.40;;
44862;SDS011;30597;49.628;10.850;2023-04-24T08:10:20;3.63;;;3.27;;
44862;SDS011;30597;49.628;10.850;2023-04-24T08:12:50;5.43;;;2.90;;
44862;SDS011;30597;49.628;10.850;2023-04-24T08:15:16;3.50;;;3.20;;
44862;SDS011;30597;49.628;10.850;2023-04-24T08:17:42;4.33;;;3.90;;
44862;SDS011;30597;49.628;10.850;2023-04-24T18:36:21;10.47;;;9.03;;
44862;SDS011;30597;49.628;10.850;2023-04-24T18:38:47;12.10;;;10.00;;
44862;SDS011;30597;49.628;10.850;2023-04-24T18:41:12;10.93;;;9.93;;
44862;SDS011;30597;49.628;10.850;2023-04-24T18:43:38;10.30;;;9.30;;
44862;SDS011;30597;49.628;10.850;2023-04-24T18:46:03;12.40;;;10.20;;
44862;SDS011;30597;49.628;10.850;2023-04-24T18:48:29;11.17;;;9.97;;
44862;SDS011;30597;49.628;10.850;2023-04-24T18:50:55;11.83;;;10.33;;
44862;SDS011;30597;49.628;10.850;2023-04-24T18:53:21;10.43;;;9.40;;
44862;SDS011;30597;49.628;10.850;2023-04-24T18:55:46;11.90;;;10.13;;
44862;SDS011;30597;49.628;10.850;2023-04-24T18:58:12;11.70;;;10.47;;
44862;SDS011;30597;49.628;10.850;2023-04-24T19:00:37;10.93;;;9.87;;
44862;SDS011;30597;49.628;10.850;2023-04-24T19:03:04;9.80;;;8.83;;
44862;SDS011;30597;49.628;10.850;2023-04-24T19:05:32;10.13;;;9.13;;
44862;SDS011;30597;49.628;10.850;2023-04-24T19:07:58;11.27;;;10.00;;
44862;SDS011;30597;49.628;10.850;2023-04-24T19:10:23;9.93;;;9.03;;
44862;SDS011;30597;49.628;10.850;2023-04-24T19:12:49;10.90;;;9.87;;
44862;SDS011;30597;49.628;10.850;2023-04-24T19:15:20;10.07;;;9.07;;
44862;SDS011;30597;49.628;10.850;2023-04-24T19:17:48;10.83;;;9.83;;
44862;SDS011;30597;49.628;10.850;2023-04-24T19:20:15;10.07;;;9.10;;
44862;SDS011;30597;49.628;10.850;2023-04-24T19:22:45;10.40;;;9.40;;
44862;SDS011;30597;49.628;10.850;2023-04-24T19:25:11;10.20;;;9.17;;
44862;SDS011;30597;49.628;10.850;2023-04-24T19:27:37;10.03;;;8.93;;
44862;SDS011;30597;49.628;10.850;2023-04-24T19:30:02;9.97;;;8.97;;
44862;SDS011;30597;49.628;10.850;2023-04-24T19:32:28;9.07;;;8.17;;
44862;SDS011;30597;49.628;10.850;2023-04-24T19:34:54;10.20;;;9.23;;
44862;SDS011;30597;49.628;10.850;2023-04-24T19:37:20;10.93;;;9.73;;
44862;SDS011;30597;49.628;10.850;2023-04-24T19:39:46;10.37;;;9.40;;
44862;SDS011;30597;49.628;10.850;2023-04-24T19:42:11;11.00;;;9.40;;
44862;SDS011;30597;49.628;10.850;2023-04-24T19:44:37;10.30;;;9.30;;
44862;SDS011;30597;49.628;10.850;2023-04-24T19:47:02;9.57;;;8.57;;
44862;SDS011;30597;49.628;10.850;2023-04-24T19:49:28;9.57;;;8.17;;
44862;SDS011;30597;49.628;10.850;2023-04-24T19:51:54;10.90;;;8.43;;
44862;SDS011;30597;49.628;10.850;2023-04-24T19:54:20;10.13;;;9.13;;
44862;SDS011;30597;49.628;10.850;2023-04-24T19:56:45;9.90;;;9.00;;
44862;SDS011;30597;49.628;10.850;2023-04-24T19:59:11;10.00;;;9.00;;
44862;SDS011;30597;49.628;10.850;2023-04-24T20:01:37;9.30;;;8.27;;
44862;SDS011;30597;49.628;10.850;2023-04-24T20:04:03;9.30;;;8.30;;
44862;SDS011;30597;49.628;10.850;2023-04-24T20:06:31;8.50;;;7.60;;
44862;SDS011;30597;49.628;10.850;2023-04-24T20:08:57;8.30;;;7.40;;
44862;SDS011;30597;49.628;10.850;2023-04-24T20:11:23;10.00;;;8.37;;
44862;SDS011;30597;49.628;10.850;2023-04-24T20:13:49;8.93;;;8.13;;
44862;SDS011;30597;49.628;10.850;2023-04-24T20:16:14;8.73;;;7.90;;
44862;SDS011;30597;49.628;10.850;2023-04-24T20:18:40;10.00;;;8.67;;
44862;SDS011;30597;49.628;10.850;2023-04-24T20:21:07;8.80;;;7.97;;
44862;SDS011;30597;49.628;10.850;2023-04-24T20:23:33;8.07;;;7.27;;
44862;SDS011;30597;49.628;10.850;2023-04-24T20:26:02;7.73;;;7.03;;
44862;SDS011;30597;49.628;10.850;2023-04-24T20:28:29;10.63;;;8.87;;
44862;SDS011;30597;49.628;10.850;2023-04-24T20:30:54;7.87;;;7.17;;
44862;SDS011;30597;49.628;10.850;2023-04-24T20:33:21;7.97;;;7.17;;
44862;SDS011;30597;49.628;10.850;2023-04-24T20:35:47;9.70;;;8.17;;
44862;SDS011;30597;49.628;10.850;2023-04-24T20:38:13;9.07;;;8.20;;
44862;SDS011;30597;49.628;10.850;2023-04-24T20:40:39;8.40;;;7.60;;
44862;SDS011;30597;49.628;10.850;2023-04-24T20:43:06;8.37;;;7.57;;
44862;SDS011;30597;49.628;10.850;2023-04-24T20:45:32;9.23;;;8.40;;
44862;SDS011;30597;49.628;10.850;2023-04-24T20:47:58;7.93;;;6.90;;
44862;SDS011;30597;49.628;10.850;2023-04-24T20:50:24;8.23;;;7.50;;
44862;SDS011;30597;49.628;10.850;2023-04-24T20:52:49;7.97;;;7.17;;
44862;SDS011;30597;49.628;10.850;2023-04-24T20:55:15;9.70;;;8.80;;
44862;SDS011;30597;49.628;10.850;2023-04-24T20:57:41;8.60;;;7.80;;
44862;SDS011;30597;49.628;10.850;2023-04-24T21:00:07;7.70;;;7.00;;
44862;SDS011;30597;49.628;10.850;2023-04-24T21:02:34;8.63;;;7.90;;
44862;SDS011;30597;49.628;10.850;2023-04-24T21:05:00;7.50;;;6.80;;
44862;SDS011;30597;49.628;10.850;2023-04-24T21:07:25;7.93;;;7.13;;
44862;SDS011;30597;49.628;10.850;2023-04-24T21:09:51;7.73;;;6.97;;
44862;SDS011;30597;49.628;10.850;2023-04-24T21:12:16;8.07;;;7.10;;
44862;SDS011;30597;49.628;10.850;2023-04-24T21:14:42;7.50;;;6.70;;
44862;SDS011;30597;49.628;10.850;2023-04-24T21:17:07;7.33;;;6.63;;
44862;SDS011;30597;49.628;10.850;2023-04-24T21:19:33;6.90;;;6.10;;
44862;SDS011;30597;49.628;10.850;2023-04-24T21:21:59;8.20;;;7.50;;
44862;SDS011;30597;49.628;10.850;2023-04-24T21:24:24;7.53;;;6.80;;
44862;SDS011;30597;49.628;10.850;2023-04-24T21:26:50;7.30;;;6.70;;
44862;SDS011;30597;49.628;10.850;2023-04-24T21:29:16;7.00;;;6.30;;
44862;SDS011;30597;49.628;10.850;2023-04-24T21:31:41;7.63;;;6.90;;
44862;SDS011;30597;49.628;10.850;2023-04-24T21:34:07;6.73;;;6.13;;
44862;SDS011;30597;49.628;10.850;2023-04-24T21:36:32;7.60;;;6.40;;
44862;SDS011;30597;49.628;10.850;2023-04-24T21:38:58;7.33;;;6.60;;
44862;SDS011;30597;49.628;10.850;2023-04-24T21:41:23;7.13;;;6.33;;
44862;SDS011;30597;49.628;10.850;2023-04-24T21:43:49;7.03;;;6.43;;
44862;SDS011;30597;49.628;10.850;2023-04-24T21:46:15;7.03;;;6.33;;
44862;SDS011;30597;49.628;10.850;2023-04-24T21:48:41;8.87;;;6.37;;
44862;SDS011;30597;49.628;10.850;2023-04-24T21:51:06;6.97;;;6.30;;
44862;SDS011;30597;49.628;10.850;2023-04-24T21:53:32;7.40;;;6.70;;
44862;SDS011;30597;49.628;10.850;2023-04-24T21:55:58;7.10;;;6.40;;
44862;SDS011;30597;49.628;10.850;2023-04-24T21:58:24;6.50;;;5.93;;
44862;SDS011;30597;49.628;10.850;2023-04-24T22:00:49;6.63;;;6.03;;
44862;SDS011;30597;49.628;10.850;2023-04-24T22:03:15;6.33;;;5.73;;
44862;SDS011;30597;49.628;10.850;2023-04-24T22:05:40;6.37;;;5.83;;
44862;SDS011;30597;49.628;10.850;2023-04-24T22:08:06;7.20;;;6.20;;
44862;SDS011;30597;49.628;10.850;2023-04-24T22:10:32;6.80;;;5.90;;
44862;SDS011;30597;49.628;10.850;2023-04-24T22:12:57;6.20;;;5.60;;
44862;SDS011;30597;49.628;10.850;2023-04-24T22:15:23;6.37;;;5.87;;
44862;SDS011;30597;49.628;10.850;2023-04-24T22:17:48;6.67;;;6.00;;
44862;SDS011;30597;49.628;10.850;2023-04-24T22:20:16;6.50;;;5.90;;
44862;SDS011;30597;49.628;10.850;2023-04-24T22:22:42;6.43;;;5.67;;
44862;SDS011;30597;49.628;10.850;2023-04-24T22:25:08;5.97;;;5.40;;
44862;SDS011;30597;49.628;10.850;2023-04-24T22:27:33;6.33;;;5.57;;
44862;SDS011;30597;49.628;10.850;2023-04-24T22:29:59;6.30;;;5.30;;
44862;SDS011;30597;49.628;10.850;2023-04-24T22:32:25;5.90;;;5.40;;
44862;SDS011;30597;49.628;10.850;2023-04-24T22:34:50;6.27;;;5.77;;
44862;SDS011;30597;49.628;10.850;2023-04-24T22:37:16;6.80;;;6.20;;
44862;SDS011;30597;49.628;10.850;2023-04-24T22:39:42;5.47;;;4.97;;
44862;SDS011;30597;49.628;10.850;2023-04-24T22:42:07;11.10;;;6.00;;
44862;SDS011;30597;49.628;10.850;2023-04-24T22:44:33;5.83;;;5.27;;
44862;SDS011;30597;49.628;10.850;2023-04-24T22:46:58;6.07;;;5.47;;
44862;SDS011;30597;49.628;10.850;2023-04-24T22:49:24;6.53;;;5.93;;
44862;SDS011;30597;49.628;10.850;2023-04-24T22:51:51;5.57;;;5.07;;
44862;SDS011;30597;49.628;10.850;2023-04-24T22:54:17;5.70;;;5.30;;
44862;SDS011;30597;49.628;10.850;2023-04-24T22:56:42;4.97;;;4.50;;
44862;SDS011;30597;49.628;10.850;2023-04-24T22:59:08;5.47;;;4.97;;
44862;SDS011;30597;49.628;10.850;2023-04-24T23:01:34;6.03;;;5.53;;
44862;SDS011;30597;49.628;10.850;2023-04-24T23:03:59;5.57;;;5.03;;
44862;SDS011;30597;49.628;10.850;2023-04-24T23:06:25;5.73;;;5.23;;
44862;SDS011;30597;49.628;10.850;2023-04-24T23:08:50;8.47;;;5.13;;
44862;SDS011;30597;49.628;10.850;2023-04-24T23:11:16;5.80;;;5.30;;
44862;SDS011;30597;49.628;10.850;2023-04-24T23:13:42;5.73;;;5.20;;
44862;SDS011;30597;49.628;10.850;2023-04-24T23:16:08;4.73;;;4.20;;
44862;SDS011;30597;49.628;10.850;2023-04-24T23:18:34;4.77;;;4.37;;
44862;SDS011;30597;49.628;10.850;2023-04-24T23:20:59;5.30;;;4.80;;
44862;SDS011;30597;49.628;10.850;2023-04-24T23:23:27;5.53;;;5.03;;
44862;SDS011;30597;49.628;10.850;2023-04-24T23:25:52;5.47;;;4.97;;
44862;SDS011;30597;49.628;10.850;2023-04-24T23:28:18;4.60;;;4.20;;
44862;SDS011;30597;49.628;10.850;2023-04-24T23:30:43;6.13;;;5.10;;
44862;SDS011;30597;49.628;10.850;2023-04-24T23:33:09;6.07;;;5.30;;
44862;SDS011;30597;49.628;10.850;2023-04-24T23:35:38;5.30;;;4.80;;
44862;SDS011;30597;49.628;10.850;2023-04-24T23:38:03;4.63;;;4.07;;
44862;SDS011;30597;49.628;10.850;2023-04-24T23:40:29;5.43;;;4.90;;
44862;SDS011;30597;49.628;10.850;2023-04-24T23:42:54;4.93;;;4.53;;
44862;SDS011;30597;49.628;10.850;2023-04-24T23:45:20;4.73;;;4.33;;
44862;SDS011;30597;49.628;10.850;2023-04-24T23:47:45;4.90;;;4.40;;
44862;SDS011;30597;49.628;10.850;2023-04-24T23:50:11;4.50;;;4.10;;
44862;SDS011;30597;49.628;10.850;2023-04-24T23:52:36;5.37;;;4.20;;
44862;SDS011;30597;49.628;10.850;2023-04-24T23:55:02;4.80;;;4.40;;
44862;SDS011;30597;49.628;10.850;2023-04-24T23:57:29;4.50;;;4.10;;
44862;SDS011;30597;49.628;10.850;2023-04-24T23:59:54;4.20;;;3.80;;
